createdAt,value
2016-09-23T00:00:16.731Z,971.93
2016-09-23T00:01:16.695Z,971.92
2016-09-23T00:02:16.658Z,971.93
2016-09-23T00:03:16.619Z,971.92
2016-09-23T00:04:16.582Z,971.94
2016-09-23T00:05:16.546Z,971.92
2016-09-23T00:06:16.508Z,971.95
2016-09-23T00:07:16.472Z,971.91
2016-09-23T00:08:16.437Z,971.95
2016-09-23T00:09:16.400Z,971.91
2016-09-23T00:10:16.360Z,971.93
2016-09-23T00:11:16.325Z,971.91
2016-09-23T00:12:16.288Z,971.89
2016-09-23T00:13:16.251Z,971.93
2016-09-23T00:14:16.212Z,971.96
2016-09-23T00:15:16.175Z,971.95
2016-09-23T00:16:16.140Z,971.97
2016-09-23T00:17:16.102Z,971.98
2016-09-23T00:18:16.065Z,971.99
2016-09-23T00:19:16.029Z,972.02
2016-09-23T00:20:15.992Z,971.97
2016-09-23T00:21:15.955Z,971.97
2016-09-23T00:22:15.916Z,972.03
2016-09-23T00:23:15.880Z,972.03
2016-09-23T00:24:15.843Z,972.04
2016-09-23T00:25:15.805Z,972.09
2016-09-23T00:26:15.769Z,972.09
2016-09-23T00:27:15.733Z,972.08
2016-09-23T00:28:15.695Z,972.08
2016-09-23T00:29:15.660Z,972.08
2016-09-23T00:30:15.621Z,972.12
2016-09-23T00:31:15.583Z,972.09
2016-09-23T00:32:15.547Z,972.06
2016-09-23T00:33:15.516Z,972.1
2016-09-23T00:34:15.473Z,972.04
2016-09-23T00:35:15.435Z,972.06
2016-09-23T00:36:15.400Z,972.07
2016-09-23T00:37:15.361Z,972.05
2016-09-23T00:38:15.323Z,972.11
2016-09-23T00:39:15.287Z,972.07
2016-09-23T00:40:15.250Z,972.06
2016-09-23T00:41:15.214Z,972.08
2016-09-23T00:42:15.177Z,972.08
2016-09-23T00:43:15.139Z,972.07
2016-09-23T00:44:15.103Z,972.04
2016-09-23T00:45:15.066Z,972.06
2016-09-23T00:46:15.028Z,972.08
2016-09-23T00:47:14.989Z,972.09
2016-09-23T00:48:14.953Z,972.07
2016-09-23T00:49:14.916Z,972.08
2016-09-23T00:50:14.879Z,972.08
2016-09-23T00:51:14.843Z,972.11
2016-09-23T00:52:14.806Z,972.11
2016-09-23T00:53:14.767Z,972.11
2016-09-23T00:54:14.730Z,972.12
2016-09-23T00:55:14.692Z,972.12
2016-09-23T00:56:14.657Z,972.14
2016-09-23T00:57:14.619Z,972.1
2016-09-23T00:58:14.592Z,972.1
2016-09-23T00:59:14.545Z,972.1
2016-09-23T01:00:14.522Z,972.1
2016-09-23T01:01:14.472Z,972.08
2016-09-23T01:02:14.435Z,972.09
2016-09-23T01:03:14.396Z,972.05
2016-09-23T01:04:14.360Z,972.1
2016-09-23T01:05:14.321Z,972.09
2016-09-23T01:06:14.286Z,972.09
2016-09-23T01:07:14.247Z,972.09
2016-09-23T01:08:14.209Z,972.1
2016-09-23T01:09:14.175Z,972.06
2016-09-23T01:10:14.137Z,972.08
2016-09-23T01:11:14.099Z,972.07
2016-09-23T01:12:14.061Z,972.08
2016-09-23T01:13:14.024Z,972.12
2016-09-23T01:14:13.987Z,972.12
2016-09-23T01:15:13.950Z,972.12
2016-09-23T01:16:13.912Z,972.12
2016-09-23T01:17:13.875Z,972.11
2016-09-23T01:18:13.839Z,972.12
2016-09-23T01:19:13.799Z,972.12
2016-09-23T01:20:13.765Z,972.16
2016-09-23T01:21:13.727Z,972.18
2016-09-23T01:22:13.690Z,972.23
2016-09-23T01:23:13.658Z,972.25
2016-09-23T01:24:13.616Z,972.23
2016-09-23T01:25:13.578Z,972.31
2016-09-23T01:26:13.541Z,972.26
2016-09-23T01:27:13.503Z,972.26
2016-09-23T01:28:13.467Z,972.29
2016-09-23T01:29:13.429Z,972.3
2016-09-23T01:30:13.391Z,972.27
2016-09-23T01:31:13.355Z,972.32
2016-09-23T01:32:13.318Z,972.31
2016-09-23T01:33:13.282Z,972.29
2016-09-23T01:34:13.244Z,972.29
2016-09-23T01:35:13.206Z,972.28
2016-09-23T01:36:13.175Z,972.34
2016-09-23T01:37:13.131Z,972.32
2016-09-23T01:38:13.094Z,972.32
2016-09-23T01:39:13.057Z,972.3
2016-09-23T01:40:13.021Z,972.31
2016-09-23T01:41:12.984Z,972.33
2016-09-23T01:42:12.945Z,972.3
2016-09-23T01:43:12.909Z,972.34
2016-09-23T01:44:12.871Z,972.25
2016-09-23T01:45:12.834Z,972.3
2016-09-23T01:46:12.797Z,972.24
2016-09-23T01:47:12.760Z,972.21
2016-09-23T01:48:12.725Z,972.2
2016-09-23T01:49:12.684Z,972.17
2016-09-23T01:50:12.648Z,972.13
2016-09-23T01:51:12.611Z,972.16
2016-09-23T01:52:12.573Z,972.16
2016-09-23T01:53:12.535Z,972.13
2016-09-23T01:54:12.498Z,972.16
2016-09-23T01:55:12.462Z,972.16
2016-09-23T01:56:12.424Z,972.19
2016-09-23T01:57:12.387Z,972.23
2016-09-23T01:58:12.350Z,972.2
2016-09-23T01:59:12.312Z,972.24
2016-09-23T02:00:12.275Z,972.22
2016-09-23T02:01:12.238Z,972.23
2016-09-23T02:02:12.202Z,972.29
2016-09-23T02:03:12.165Z,972.26
2016-09-23T02:04:12.127Z,972.33
2016-09-23T02:05:12.089Z,972.33
2016-09-23T02:06:12.054Z,972.37
2016-09-23T02:07:12.014Z,972.38
2016-09-23T02:08:11.978Z,972.42
2016-09-23T02:09:11.940Z,972.41
2016-09-23T02:10:11.902Z,972.42
2016-09-23T02:11:11.867Z,972.43
2016-09-23T02:12:11.828Z,972.45
2016-09-23T02:13:11.794Z,972.43
2016-09-23T02:14:11.755Z,972.43
2016-09-23T02:15:11.718Z,972.38
2016-09-23T02:16:11.681Z,972.37
2016-09-23T02:17:11.643Z,972.4
2016-09-23T02:18:11.606Z,972.38
2016-09-23T02:19:11.570Z,972.4
2016-09-23T02:20:11.531Z,972.38
2016-09-23T02:21:11.492Z,972.39
2016-09-23T02:22:11.455Z,972.38
2016-09-23T02:23:11.418Z,972.38
2016-09-23T02:24:11.381Z,972.43
2016-09-23T02:25:11.350Z,972.46
2016-09-23T02:26:11.307Z,972.45
2016-09-23T02:27:11.270Z,972.5
2016-09-23T02:28:11.236Z,972.56
2016-09-23T02:29:11.195Z,972.51
2016-09-23T02:30:11.160Z,972.49
2016-09-23T02:31:11.121Z,972.51
2016-09-23T02:32:11.083Z,972.52
2016-09-23T02:33:11.046Z,972.49
2016-09-23T02:34:11.009Z,972.51
2016-09-23T02:35:10.971Z,972.51
2016-09-23T02:36:10.933Z,972.51
2016-09-23T02:37:10.898Z,972.54
2016-09-23T02:38:10.859Z,972.53
2016-09-23T02:39:10.824Z,972.55
2016-09-23T02:40:10.784Z,972.55
2016-09-23T02:41:10.746Z,972.55
2016-09-23T02:42:10.712Z,972.56
2016-09-23T02:43:10.672Z,972.6
2016-09-23T02:44:10.635Z,972.57
2016-09-23T02:45:10.597Z,972.55
2016-09-23T02:46:10.561Z,972.58
2016-09-23T02:47:10.521Z,972.59
2016-09-23T02:48:10.485Z,972.64
2016-09-23T02:49:10.447Z,972.58
2016-09-23T02:50:10.410Z,972.63
2016-09-23T02:51:10.373Z,972.65
2016-09-23T02:52:10.336Z,972.64
2016-09-23T02:53:10.299Z,972.63
2016-09-23T02:54:10.260Z,972.62
2016-09-23T02:55:10.222Z,972.64
2016-09-23T02:56:10.185Z,972.64
2016-09-23T02:57:10.148Z,972.63
2016-09-23T02:58:10.111Z,972.62
2016-09-23T02:59:10.074Z,972.6
2016-09-23T03:00:10.036Z,972.59
2016-09-23T03:01:10.005Z,972.59
2016-09-23T03:02:09.959Z,972.62
2016-09-23T03:03:09.924Z,972.62
2016-09-23T03:04:09.885Z,972.61
2016-09-23T03:05:09.848Z,972.64
2016-09-23T03:06:09.811Z,972.62
2016-09-23T03:07:09.774Z,972.64
2016-09-23T03:08:09.737Z,972.58
2016-09-23T03:09:09.698Z,972.59
2016-09-23T03:10:09.662Z,972.56
2016-09-23T03:11:09.624Z,972.54
2016-09-23T03:12:09.587Z,972.51
2016-09-23T03:13:09.553Z,972.6
2016-09-23T03:14:09.527Z,972.53
2016-09-23T03:15:09.475Z,972.58
2016-09-23T03:16:09.436Z,972.56
2016-09-23T03:17:09.417Z,972.51
2016-09-23T03:18:09.362Z,972.49
2016-09-23T03:19:09.326Z,972.54
2016-09-23T03:20:09.288Z,972.56
2016-09-23T03:21:09.251Z,972.58
2016-09-23T03:22:09.213Z,972.62
2016-09-23T03:23:09.176Z,972.6
2016-09-23T03:24:09.137Z,972.58
2016-09-23T03:25:09.100Z,972.66
2016-09-23T03:26:09.064Z,972.62
2016-09-23T03:27:09.025Z,972.58
2016-09-23T03:28:08.989Z,972.58
2016-09-23T03:29:08.952Z,972.56
2016-09-23T03:30:08.915Z,972.59
2016-09-23T03:31:08.878Z,972.55
2016-09-23T03:32:08.840Z,972.55
2016-09-23T03:33:08.804Z,972.57
2016-09-23T03:34:08.767Z,972.54
2016-09-23T03:35:08.727Z,972.56
2016-09-23T03:36:08.692Z,972.47
2016-09-23T03:37:08.654Z,972.53
2016-09-23T03:38:08.616Z,972.51
2016-09-23T03:39:08.579Z,972.48
2016-09-23T03:40:08.543Z,972.49
2016-09-23T03:41:08.505Z,972.57
2016-09-23T03:42:08.469Z,972.6
2016-09-23T03:43:08.430Z,972.63
2016-09-23T03:44:08.392Z,972.64
2016-09-23T03:45:08.355Z,972.65
2016-09-23T03:46:08.320Z,972.66
2016-09-23T03:47:08.281Z,972.64
2016-09-23T03:48:08.245Z,972.66
2016-09-23T03:49:08.206Z,972.66
2016-09-23T03:50:08.171Z,972.6
2016-09-23T03:51:08.135Z,972.58
2016-09-23T03:52:08.095Z,972.61
2016-09-23T03:53:08.060Z,972.6
2016-09-23T03:54:08.021Z,972.61
2016-09-23T03:55:07.986Z,972.56
2016-09-23T03:56:07.948Z,972.58
2016-09-23T03:57:07.910Z,972.51
2016-09-23T03:58:07.875Z,972.52
2016-09-23T03:59:07.836Z,972.52
2016-09-23T04:00:07.799Z,972.48
2016-09-23T04:01:07.762Z,972.51
2016-09-23T04:02:07.726Z,972.53
2016-09-23T04:03:07.689Z,972.49
2016-09-23T04:04:07.651Z,972.49
2016-09-23T04:05:07.613Z,972.5
2016-09-23T04:06:07.577Z,972.5
2016-09-23T04:07:07.539Z,972.53
2016-09-23T04:08:07.501Z,972.49
2016-09-23T04:09:07.465Z,972.5
2016-09-23T04:10:07.428Z,972.53
2016-09-23T04:11:07.392Z,972.54
2016-09-23T04:12:07.354Z,972.57
2016-09-23T04:13:07.318Z,972.54
2016-09-23T04:14:07.280Z,972.57
2016-09-23T04:15:07.242Z,972.56
2016-09-23T04:16:07.206Z,972.6
2016-09-23T04:17:07.171Z,972.6
2016-09-23T04:18:07.131Z,972.66
2016-09-23T04:19:07.094Z,972.64
2016-09-23T04:20:07.069Z,972.61
2016-09-23T04:21:07.020Z,972.65
2016-09-23T04:22:06.982Z,972.69
2016-09-23T04:23:06.947Z,972.69
2016-09-23T04:24:06.908Z,972.69
2016-09-23T04:25:06.873Z,972.72
2016-09-23T04:26:06.835Z,972.71
2016-09-23T04:27:06.796Z,972.75
2016-09-23T04:28:06.761Z,972.75
2016-09-23T04:29:06.723Z,972.74
2016-09-23T04:30:06.686Z,972.75
2016-09-23T04:31:06.649Z,972.78
2016-09-23T04:32:06.612Z,972.79
2016-09-23T04:33:06.575Z,972.82
2016-09-23T04:34:06.539Z,972.87
2016-09-23T04:35:06.502Z,972.85
2016-09-23T04:36:06.465Z,972.85
2016-09-23T04:37:06.428Z,972.81
2016-09-23T04:38:06.390Z,972.82
2016-09-23T04:39:06.354Z,972.8
2016-09-23T04:40:06.316Z,972.82
2016-09-23T04:41:06.279Z,972.84
2016-09-23T04:42:06.242Z,972.83
2016-09-23T04:43:06.207Z,972.82
2016-09-23T04:44:06.168Z,972.84
2016-09-23T04:45:06.132Z,972.85
2016-09-23T04:46:06.095Z,972.9
2016-09-23T04:47:06.060Z,972.86
2016-09-23T04:48:06.022Z,972.89
2016-09-23T04:49:05.984Z,972.87
2016-09-23T04:50:05.948Z,972.84
2016-09-23T04:51:05.910Z,972.85
2016-09-23T04:52:05.874Z,972.85
2016-09-23T04:53:05.837Z,972.85
2016-09-23T04:54:05.801Z,972.87
2016-09-23T04:55:05.763Z,972.85
2016-09-23T04:56:05.727Z,972.85
2016-09-23T04:57:05.690Z,972.86
2016-09-23T04:58:05.654Z,972.88
2016-09-23T04:59:05.615Z,972.87
2016-09-23T05:00:05.580Z,972.89
2016-09-23T05:01:05.544Z,972.9
2016-09-23T05:02:05.508Z,972.94
2016-09-23T05:03:05.468Z,972.94
2016-09-23T05:04:05.434Z,972.97
2016-09-23T05:05:05.411Z,973.03
2016-09-23T05:06:05.357Z,973
2016-09-23T05:07:05.325Z,972.99
2016-09-23T05:08:05.287Z,973.03
2016-09-23T05:09:05.246Z,973.06
2016-09-23T05:10:05.213Z,973.02
2016-09-23T05:11:05.176Z,973.05
2016-09-23T05:12:05.139Z,973.04
2016-09-23T05:13:05.102Z,973.1
2016-09-23T05:14:05.065Z,973.06
2016-09-23T05:15:05.028Z,973.12
2016-09-23T05:16:04.991Z,973.14
2016-09-23T05:17:04.955Z,973.18
2016-09-23T05:18:04.917Z,973.15
2016-09-23T05:19:04.883Z,973.17
2016-09-23T05:20:04.848Z,973.19
2016-09-23T05:21:04.809Z,973.19
2016-09-23T05:22:04.774Z,973.19
2016-09-23T05:23:04.736Z,973.22
2016-09-23T05:24:04.701Z,973.25
2016-09-23T05:25:04.666Z,973.28
2016-09-23T05:26:04.628Z,973.3
2016-09-23T05:27:04.593Z,973.29
2016-09-23T05:28:04.554Z,973.31
2016-09-23T05:29:04.519Z,973.29
2016-09-23T05:30:04.483Z,973.3
2016-09-23T05:31:04.445Z,973.3
2016-09-23T05:32:04.409Z,973.3
2016-09-23T05:33:04.374Z,973.35
2016-09-23T05:34:04.338Z,973.35
2016-09-23T05:35:04.301Z,973.35
2016-09-23T05:36:04.264Z,973.34
2016-09-23T05:37:04.228Z,973.39
2016-09-23T05:38:04.192Z,973.4
2016-09-23T05:39:04.155Z,973.4
2016-09-23T05:40:04.121Z,973.4
2016-09-23T05:41:04.083Z,973.41
2016-09-23T05:42:04.046Z,973.36
2016-09-23T05:43:04.011Z,973.36
2016-09-23T05:44:03.975Z,973.41
2016-09-23T05:45:03.939Z,973.4
2016-09-23T05:46:03.905Z,973.43
2016-09-23T05:47:03.867Z,973.47
2016-09-23T05:48:03.833Z,973.51
2016-09-23T05:49:03.796Z,973.53
2016-09-23T05:50:03.760Z,973.52
2016-09-23T05:51:03.724Z,973.56
2016-09-23T05:52:03.688Z,973.54
2016-09-23T05:53:03.653Z,973.57
2016-09-23T05:54:03.617Z,973.61
2016-09-23T05:55:03.582Z,973.57
2016-09-23T05:56:03.546Z,973.61
2016-09-23T05:57:03.508Z,973.63
2016-09-23T05:58:03.473Z,973.65
2016-09-23T05:59:03.437Z,973.65
2016-09-23T06:00:03.403Z,973.66
2016-09-23T06:01:03.366Z,973.65
2016-09-23T06:02:03.330Z,973.7
2016-09-23T06:03:03.295Z,973.71
2016-09-23T06:04:03.257Z,973.72
2016-09-23T06:05:03.223Z,973.75
2016-09-23T06:06:03.189Z,973.72
2016-09-23T06:07:03.153Z,973.73
2016-09-23T06:08:03.116Z,973.76
2016-09-23T06:09:03.082Z,973.75
2016-09-23T06:10:03.047Z,973.74
2016-09-23T06:11:03.010Z,973.73
2016-09-23T06:12:02.981Z,973.74
2016-09-23T06:13:02.940Z,973.78
2016-09-23T06:14:02.905Z,973.8
2016-09-23T06:15:02.868Z,973.81
2016-09-23T06:16:02.833Z,973.84
2016-09-23T06:17:02.801Z,973.85
2016-09-23T06:18:02.764Z,973.89
2016-09-23T06:19:02.728Z,973.86
2016-09-23T06:20:02.693Z,973.93
2016-09-23T06:21:02.660Z,973.87
2016-09-23T06:22:02.623Z,973.91
2016-09-23T06:23:02.587Z,973.92
2016-09-23T06:24:02.553Z,973.93
2016-09-23T06:25:02.518Z,973.93
2016-09-23T06:26:02.481Z,973.89
2016-09-23T06:27:02.448Z,973.93
2016-09-23T06:28:02.414Z,973.93
2016-09-23T06:29:02.378Z,973.92
2016-09-23T06:30:02.344Z,973.87
2016-09-23T06:31:02.307Z,973.96
2016-09-23T06:32:02.273Z,973.92
2016-09-23T06:33:02.239Z,973.94
2016-09-23T06:34:02.203Z,973.95
2016-09-23T06:35:02.167Z,973.95
2016-09-23T06:36:02.137Z,974.01
2016-09-23T06:37:02.100Z,974.02
2016-09-23T06:38:02.064Z,974
2016-09-23T06:39:02.030Z,974.04
2016-09-23T06:40:01.995Z,974.04
2016-09-23T06:41:01.960Z,974.03
2016-09-23T06:42:01.925Z,974.11
2016-09-23T06:43:01.892Z,974.12
2016-09-23T06:44:01.858Z,974.15
2016-09-23T06:45:01.822Z,974.17
2016-09-23T06:46:01.790Z,974.19
2016-09-23T06:47:01.752Z,974.17
2016-09-23T06:48:01.717Z,974.22
2016-09-23T06:49:01.684Z,974.23
2016-09-23T06:50:01.650Z,974.23
2016-09-23T06:51:01.614Z,974.22
2016-09-23T06:52:01.580Z,974.22
2016-09-23T06:53:01.548Z,974.23
2016-09-23T06:54:01.514Z,974.28
2016-09-23T06:55:01.480Z,974.25
2016-09-23T06:56:01.447Z,974.32
2016-09-23T06:57:01.410Z,974.37
2016-09-23T06:58:01.377Z,974.31
2016-09-23T06:59:01.342Z,974.38
2016-09-23T07:00:01.311Z,974.39
2016-09-23T07:01:01.275Z,974.41
2016-09-23T07:02:01.244Z,974.47
2016-09-23T07:03:01.213Z,974.45
2016-09-23T07:04:01.175Z,974.51
2016-09-23T07:05:01.142Z,974.51
2016-09-23T07:06:01.109Z,974.54
2016-09-23T07:07:01.076Z,974.55
2016-09-23T07:08:01.042Z,974.6
2016-09-23T07:09:01.011Z,974.61
2016-09-23T07:10:00.975Z,974.61
2016-09-23T07:11:00.944Z,974.6
2016-09-23T07:12:00.911Z,974.58
2016-09-23T07:13:00.877Z,974.64
2016-09-23T07:14:00.845Z,974.57
2016-09-23T07:15:00.812Z,974.6
2016-09-23T07:16:00.780Z,974.62
2016-09-23T07:17:00.747Z,974.65
2016-09-23T07:18:00.716Z,974.6
2016-09-23T07:19:00.683Z,974.57
2016-09-23T07:20:00.649Z,974.63
2016-09-23T07:21:00.618Z,974.6
2016-09-23T07:22:00.585Z,974.62
2016-09-23T07:23:00.552Z,974.6
2016-09-23T07:24:00.520Z,974.59
2016-09-23T07:25:00.485Z,974.61
2016-09-23T07:26:00.458Z,974.66
2016-09-23T07:27:00.420Z,974.65
2016-09-23T07:28:00.386Z,974.72
2016-09-23T07:29:00.355Z,974.7
2016-09-23T07:30:00.320Z,974.76
2016-09-23T07:31:00.288Z,974.75
2016-09-23T07:32:00.257Z,974.76
2016-09-23T07:33:00.223Z,974.81
2016-09-23T07:34:00.192Z,974.79
2016-09-23T07:35:00.157Z,974.84
2016-09-23T07:36:00.123Z,974.83
2016-09-23T07:37:00.091Z,974.82
2016-09-23T07:38:00.058Z,974.87
2016-09-23T07:39:00.024Z,974.91
2016-09-23T07:39:59.993Z,974.85
2016-09-23T07:40:59.960Z,974.9
2016-09-23T07:41:59.926Z,974.89
2016-09-23T07:42:59.891Z,974.92
2016-09-23T07:43:59.864Z,974.95
2016-09-23T07:44:59.829Z,974.98
2016-09-23T07:45:59.794Z,975.03
2016-09-23T07:46:59.763Z,974.98
2016-09-23T07:47:59.729Z,975
2016-09-23T07:48:59.697Z,974.97
2016-09-23T07:49:59.664Z,974.98
2016-09-23T07:50:59.630Z,974.97
2016-09-23T07:51:59.599Z,974.98
2016-09-23T07:52:59.567Z,975.04
2016-09-23T07:53:59.534Z,975.02
2016-09-23T07:54:59.500Z,975.02
2016-09-23T07:55:59.468Z,975
2016-09-23T07:56:59.436Z,975.04
2016-09-23T07:57:59.402Z,974.98
2016-09-23T07:58:59.372Z,975
2016-09-23T07:59:59.338Z,975.01
2016-09-23T08:00:59.305Z,975.01
2016-09-23T08:01:59.273Z,975.05
2016-09-23T08:02:59.243Z,975.02
2016-09-23T08:03:59.212Z,975.02
2016-09-23T08:04:59.175Z,975
2016-09-23T08:05:59.145Z,975.05
2016-09-23T08:06:59.111Z,975.05
2016-09-23T08:07:59.079Z,975.05
2016-09-23T08:08:59.048Z,975.09
2016-09-23T08:09:59.015Z,975.06
2016-09-23T08:10:58.984Z,975.08
2016-09-23T08:11:58.949Z,975.1
2016-09-23T08:12:58.918Z,975.1
2016-09-23T08:13:58.886Z,975.12
2016-09-23T08:14:58.853Z,975.16
2016-09-23T08:15:58.820Z,975.17
2016-09-23T08:16:58.787Z,975.25
2016-09-23T08:17:58.757Z,975.27
2016-09-23T08:18:58.723Z,975.27
2016-09-23T08:19:58.692Z,975.28
2016-09-23T08:20:58.660Z,975.28
2016-09-23T08:21:58.633Z,975.3
2016-09-23T08:22:58.597Z,975.29
2016-09-23T08:23:58.568Z,975.33
2016-09-23T08:24:58.535Z,975.35
2016-09-23T08:25:58.506Z,975.38
2016-09-23T08:26:58.474Z,975.38
2016-09-23T08:27:58.442Z,975.36
2016-09-23T08:28:58.411Z,975.34
2016-09-23T08:29:58.382Z,975.35
2016-09-23T08:30:58.353Z,975.36
2016-09-23T08:31:58.320Z,975.38
2016-09-23T08:32:58.291Z,975.38
2016-09-23T08:33:58.262Z,975.37
2016-09-23T08:34:58.230Z,975.39
2016-09-23T08:35:58.200Z,975.41
2016-09-23T08:36:58.171Z,975.37
2016-09-23T08:37:58.141Z,975.37
2016-09-23T08:38:58.115Z,975.41
2016-09-23T08:39:58.082Z,975.45
2016-09-23T08:40:58.052Z,975.5
2016-09-23T08:41:58.022Z,975.4
2016-09-23T08:42:57.996Z,975.35
2016-09-23T08:43:57.963Z,975.34
2016-09-23T08:44:57.935Z,975.29
2016-09-23T08:45:57.903Z,975.35
2016-09-23T08:46:57.872Z,975.36
2016-09-23T08:47:57.845Z,975.37
2016-09-23T08:48:57.813Z,975.35
2016-09-23T08:49:57.785Z,975.4
2016-09-23T08:50:57.755Z,975.41
2016-09-23T08:51:57.725Z,975.41
2016-09-23T08:52:57.697Z,975.45
2016-09-23T08:53:57.669Z,975.49
2016-09-23T08:54:57.643Z,975.45
2016-09-23T08:55:57.606Z,975.55
2016-09-23T08:56:57.581Z,975.54
2016-09-23T08:57:57.549Z,975.55
2016-09-23T08:58:57.520Z,975.61
2016-09-23T08:59:57.492Z,975.52
2016-09-23T09:00:57.461Z,975.43
2016-09-23T09:01:57.432Z,975.37
2016-09-23T09:02:57.402Z,975.32
2016-09-23T09:03:57.407Z,975.34
2016-09-23T09:04:57.345Z,975.35
2016-09-23T09:05:57.317Z,975.36
2016-09-23T09:06:57.286Z,975.33
2016-09-23T09:07:57.259Z,975.36
2016-09-23T09:08:57.231Z,975.33
2016-09-23T09:09:57.203Z,975.36
2016-09-23T09:10:57.171Z,975.4
2016-09-23T09:11:57.142Z,975.4
2016-09-23T09:12:57.114Z,975.42
2016-09-23T09:13:57.085Z,975.39
2016-09-23T09:14:57.063Z,975.44
2016-09-23T09:15:57.026Z,975.45
2016-09-23T09:16:56.999Z,975.52
2016-09-23T09:17:56.967Z,975.53
2016-09-23T09:18:56.939Z,975.56
2016-09-23T09:19:56.909Z,975.54
2016-09-23T09:20:56.879Z,975.55
2016-09-23T09:21:56.852Z,975.55
2016-09-23T09:22:56.823Z,975.54
2016-09-23T09:23:56.791Z,975.6
2016-09-23T09:24:56.766Z,975.55
2016-09-23T09:25:56.736Z,975.53
2016-09-23T09:26:56.705Z,975.48
2016-09-23T09:27:56.676Z,975.42
2016-09-23T09:28:56.650Z,975.45
2016-09-23T09:29:56.617Z,975.46
2016-09-23T09:30:56.589Z,975.41
2016-09-23T09:31:56.560Z,975.42
2016-09-23T09:32:56.528Z,975.43
2016-09-23T09:33:56.500Z,975.42
2016-09-23T09:34:56.471Z,975.43
2016-09-23T09:35:56.443Z,975.45
2016-09-23T09:36:56.413Z,975.42
2016-09-23T09:37:56.385Z,975.47
2016-09-23T09:38:56.356Z,975.47
2016-09-23T09:39:56.324Z,975.53
2016-09-23T09:40:56.296Z,975.55
2016-09-23T09:41:56.267Z,975.59
2016-09-23T09:42:56.238Z,975.58
2016-09-23T09:43:56.210Z,975.57
2016-09-23T09:44:56.180Z,975.58
2016-09-23T09:45:56.151Z,975.63
2016-09-23T09:46:56.121Z,975.67
2016-09-23T09:47:56.095Z,975.59
2016-09-23T09:48:56.066Z,975.52
2016-09-23T09:49:56.037Z,975.52
2016-09-23T09:50:56.007Z,975.6
2016-09-23T09:51:55.981Z,975.6
2016-09-23T09:52:55.959Z,975.57
2016-09-23T09:53:55.924Z,975.56
2016-09-23T09:54:55.896Z,975.56
2016-09-23T09:55:55.867Z,975.52
2016-09-23T09:56:55.841Z,975.56
2016-09-23T09:57:55.812Z,975.58
2016-09-23T09:58:55.783Z,975.74
2016-09-23T09:59:55.757Z,975.61
2016-09-23T10:00:55.731Z,975.62
2016-09-23T10:01:55.701Z,975.73
2016-09-23T10:02:55.673Z,975.96
2016-09-23T10:03:55.647Z,976
2016-09-23T10:04:55.620Z,975.91
2016-09-23T10:05:55.592Z,975.91
2016-09-23T10:06:55.568Z,975.92
2016-09-23T10:07:55.539Z,975.92
2016-09-23T10:08:55.512Z,975.89
2016-09-23T10:09:55.487Z,975.88
2016-09-23T10:10:55.461Z,975.94
2016-09-23T10:11:55.436Z,975.91
2016-09-23T10:12:55.410Z,975.9
2016-09-23T10:13:55.385Z,975.94
2016-09-23T10:14:55.360Z,975.96
2016-09-23T10:15:55.351Z,975.87
2016-09-23T10:16:55.313Z,976.02
2016-09-23T10:17:55.284Z,976
2016-09-23T10:18:55.263Z,975.98
2016-09-23T10:19:55.242Z,975.99
2016-09-23T10:20:55.220Z,975.94
2016-09-23T10:21:55.189Z,975.7
2016-09-23T10:22:55.166Z,975.6
2016-09-23T10:23:55.144Z,975.61
2016-09-23T10:24:55.118Z,975.86
2016-09-23T10:25:55.094Z,975.89
2016-09-23T10:26:55.071Z,975.82
2016-09-23T10:27:55.053Z,975.83
2016-09-23T10:28:55.025Z,975.76
2016-09-23T10:29:55.003Z,975.71
2016-09-23T10:30:54.978Z,975.53
2016-09-23T10:31:54.956Z,975.82
2016-09-23T10:32:54.933Z,975.8
2016-09-23T10:33:54.910Z,975.74
2016-09-23T10:34:54.888Z,975.78
2016-09-23T10:35:54.864Z,975.79
2016-09-23T10:36:54.843Z,975.75
2016-09-23T10:37:54.820Z,975.68
2016-09-23T10:38:54.798Z,975.71
2016-09-23T10:39:54.775Z,975.72
2016-09-23T10:40:54.754Z,975.69
2016-09-23T10:41:54.731Z,975.75
2016-09-23T10:42:54.708Z,975.79
2016-09-23T10:43:54.687Z,975.8
2016-09-23T10:44:54.665Z,975.78
2016-09-23T10:45:54.643Z,975.8
2016-09-23T10:46:54.619Z,975.75
2016-09-23T10:47:54.599Z,975.73
2016-09-23T10:48:54.577Z,975.71
2016-09-23T10:49:54.554Z,975.68
2016-09-23T10:50:54.534Z,975.66
2016-09-23T10:51:54.514Z,975.86
2016-09-23T10:52:54.489Z,976.13
2016-09-23T10:53:54.469Z,976.09
2016-09-23T10:54:54.448Z,976.11
2016-09-23T10:55:54.425Z,976.17
2016-09-23T10:56:54.402Z,976.18
2016-09-23T10:57:54.381Z,976.03
2016-09-23T10:58:54.359Z,975.95
2016-09-23T10:59:54.339Z,975.92
2016-09-23T11:00:54.320Z,976
2016-09-23T11:01:54.299Z,975.98
2016-09-23T11:02:54.272Z,975.93
2016-09-23T11:03:54.250Z,975.87
2016-09-23T11:04:54.228Z,975.76
2016-09-23T11:05:54.209Z,975.68
2016-09-23T11:06:54.184Z,975.69
2016-09-23T11:07:54.162Z,975.68
2016-09-23T11:08:54.140Z,975.63
2016-09-23T11:09:54.118Z,975.6
2016-09-23T11:10:54.095Z,975.61
2016-09-23T11:11:54.074Z,975.6
2016-09-23T11:12:54.050Z,975.58
2016-09-23T11:13:54.043Z,975.52
2016-09-23T11:14:54.006Z,975.49
2016-09-23T11:15:53.985Z,975.49
2016-09-23T11:16:53.962Z,975.46
2016-09-23T11:17:53.938Z,975.48
2016-09-23T11:18:53.917Z,975.53
2016-09-23T11:19:53.895Z,975.61
2016-09-23T11:20:53.871Z,975.65
2016-09-23T11:21:53.849Z,975.63
2016-09-23T11:22:53.826Z,975.47
2016-09-23T11:23:53.802Z,975.42
2016-09-23T11:24:53.787Z,975.42
2016-09-23T11:25:53.756Z,975.36
2016-09-23T11:26:53.732Z,975.33
2016-09-23T11:27:53.708Z,975.35
2016-09-23T11:28:53.684Z,975.33
2016-09-23T11:29:53.659Z,975.33
2016-09-23T11:30:53.639Z,975.33
2016-09-23T11:31:53.614Z,975.28
2016-09-23T11:32:53.588Z,975.26
2016-09-23T11:33:53.564Z,975.27
2016-09-23T11:34:53.540Z,975.27
2016-09-23T11:35:53.516Z,975.29
2016-09-23T11:36:53.491Z,975.23
2016-09-23T11:37:53.466Z,975.25
2016-09-23T11:38:53.442Z,975.27
2016-09-23T11:39:53.418Z,975.25
2016-09-23T11:40:53.392Z,975.26
2016-09-23T11:41:53.367Z,975.22
2016-09-23T11:42:53.343Z,975.19
2016-09-23T11:43:53.317Z,975.19
2016-09-23T11:44:53.293Z,975.22
2016-09-23T11:45:53.268Z,975.17
2016-09-23T11:46:53.242Z,975.16
2016-09-23T11:47:53.216Z,975.18
2016-09-23T11:48:53.190Z,975.19
2016-09-23T11:49:53.165Z,975.14
2016-09-23T11:50:53.138Z,975.09
2016-09-23T11:51:53.114Z,975.11
2016-09-23T11:52:53.087Z,975.12
2016-09-23T11:53:53.060Z,975.15
2016-09-23T11:54:53.033Z,975.17
2016-09-23T11:55:53.007Z,975.13
2016-09-23T11:56:52.980Z,975.16
2016-09-23T11:57:52.956Z,975.18
2016-09-23T11:58:52.928Z,975.16
2016-09-23T11:59:52.902Z,975.19
2016-09-23T12:00:52.875Z,975.15
2016-09-23T12:01:52.849Z,975.11
2016-09-23T12:02:52.820Z,975.11
2016-09-23T12:03:52.797Z,975.11
2016-09-23T12:04:52.769Z,975.04
2016-09-23T12:05:52.739Z,975.07
2016-09-23T12:06:52.712Z,975.08
2016-09-23T12:07:52.686Z,975.05
2016-09-23T12:08:52.660Z,975.07
2016-09-23T12:09:52.629Z,975.04
2016-09-23T12:10:52.605Z,975.1
2016-09-23T12:11:52.577Z,975.08
2016-09-23T12:12:52.550Z,975.09
2016-09-23T12:13:52.523Z,975.07
2016-09-23T12:14:52.496Z,975.1
2016-09-23T12:15:52.469Z,975.05
2016-09-23T12:16:52.440Z,975.03
2016-09-23T12:17:52.413Z,975.02
2016-09-23T12:18:52.394Z,975.03
2016-09-23T12:19:52.359Z,975.03
2016-09-23T12:20:52.331Z,975.04
2016-09-23T12:21:52.304Z,974.97
2016-09-23T12:22:52.278Z,974.99
2016-09-23T12:23:52.250Z,974.96
2016-09-23T12:24:52.221Z,974.96
2016-09-23T12:25:52.197Z,974.94
2016-09-23T12:26:52.167Z,974.93
2016-09-23T12:27:52.140Z,974.95
2016-09-23T12:28:52.113Z,974.94
2016-09-23T12:29:52.085Z,974.92
2016-09-23T12:30:52.058Z,974.99